Aeroporto :
LOGIN :

Iscrizione | Disclaimer

   EN    FR    IT 

 










Sommario :    VFR   VFR Marginale   IFR   IFR Intensivo   IFR Molto Intensivo
Visibilità : 
Base nubi : 
>= 8 km
>= 3000ft
5 / 8 km
1000 / 3000 ft
1500m / 5 km
500 / 1000 ft
800 / 1500m
200 / 500 ft
< 800m
< 200 ft
Simboli :   Temporali  Nebbia  Neve Forte  Precipitazioni Forti  Vento > 20 kt
SIGMETs :   Varie  Temporali  Ghiacco  Turbolenza  Onda orograficha  Ceneri Vulcaniche






- Altitudine del aeroporto : 154 ft
- Codice IATA : PKV


ULOO - Pskov

ULTIMO METAR :
  • 310900Z 36002MPS 310V030 9999 BKN025 09/06 Q1023 R01/190060 NOSIG RMK QFE763

METARs OBSOLETI :
  • 310830Z 32002MPS 260V010 9999 BKN025 08/07 Q1023 R01/190060 NOSIG RMK QFE763
  • 310800Z 34002MPS 270V020 9999 BKN022 08/06 Q1023 R01/190060 NOSIG RMK QFE763
  • 310730Z VRB01MPS 9999 SCT021 08/06 Q1022 R01/190060 NOSIG RMK QFE762
  • 310700Z 33003MPS 9999 BKN020 08/06 Q1022 R19/190060 NOSIG RMK QFE762
  • 310630Z 33003MPS 9999 BKN019 08/06 Q1022 R19/190060 NOSIG RMK QFE762

TAF TAF ULOO
Valido dal 31 a 09 ore il 31 a 18 ore UTC


310755Z 3109/3118 01003MPS 9999 BKN020
BECMG 3110/3112 06003MPS
TEMPO 3115/3118 3100 BR



MetMap, La meteo Aeronautica in un colpo d'occhio ! - Copyright ORBIFLY Dicembre 2007 - Disclaimer

ORBIFLY MET'MAP TEAM :

Programmazione e sviluppo : Alexandra Zaïnal
Concezione : Baudouin d'Aumeries
Aiuto per la programmazione : Marc-Olivier Méhu
Supporto tecnico e logistico : Manuel Goepfert
Aiuto per la traduzione : Arnaldo La Scala

Contatto : metmap@orbifly.com




FONTI E CREDITI :

   NOAA